< Typhoon 198119 1981 Season Typhoon 198121 >
Typhoon 198120 (CLARA)
General InformationTrack Information on Google MapsDetailed Wind InformationList of All Images || Disaster Info.ResourceGoogle EarthGE AnimationAtom FeedGeoJSON
Detalied Best Track (Time Zone = UTC)
Year Month Day Hour Lat. Long. Pressure (hPa) Wind (kt) Class Image Chart
1981 9 13 18 11.4 145.6 1004 0 2 Image Chart
1981 9 14 00 11.0 144.0 1004 0 2 Image Chart
1981 9 14 06 11.2 142.5 1004 0 2 Image Chart
1981 9 14 12 11.5 141.0 1004 0 2 Image Chart
1981 9 14 18 11.7 139.5 1004 0 2 Image Chart
1981 9 15 00 12.0 138.3 1004 0 2 Image Chart
1981 9 15 06 12.2 137.3 1002 0 2 Image Chart
1981 9 15 12 12.3 136.7 1000 0 2 Image Chart
1981 9 15 18 12.3 135.9 998 0 2 Image Chart
1981 9 16 00 12.3 135.2 998 35 3 Image Chart
1981 9 16 06 12.5 134.5 996 35 3 Image Chart
1981 9 16 12 12.4 133.9 996 35 3 Image Chart
1981 9 16 18 12.5 133.2 996 35 3 Image Chart
1981 9 17 00 12.6 132.3 994 40 3 Image Chart
1981 9 17 06 13.0 131.5 992 45 3 Image Chart
1981 9 17 12 13.3 130.6 990 45 3 Image Chart
1981 9 17 18 13.6 129.7 985 50 4 Image Chart
1981 9 18 00 14.1 128.6 975 60 4 Image Chart
1981 9 18 06 14.5 128.0 975 70 5 Image Chart
1981 9 18 12 15.2 127.2 970 70 5 Image Chart
1981 9 18 18 15.9 126.3 960 70 5 Image Chart
1981 9 19 00 16.6 125.4 955 80 5 Image Chart
1981 9 19 06 17.2 124.5 930 85 5 Image Chart
1981 9 19 12 17.8 123.7 925 95 5 Image Chart
1981 9 19 18 18.3 122.9 930 100 5 Image Chart
1981 9 20 00 18.9 122.1 940 100 5 Image Chart
1981 9 20 06 19.2 121.3 950 90 5 Image Chart
1981 9 20 12 19.6 120.3 960 80 5 Image Chart
1981 9 20 18 20.1 119.4 960 75 5 Image Chart
1981 9 21 00 20.5 118.5 960 75 5 Image Chart
1981 9 21 06 21.0 117.6 960 75 5 Image Chart
1981 9 21 12 21.6 116.9 965 75 5 Image Chart
1981 9 21 18 22.4 116.1 975 75 5 Image Chart
1981 9 22 00 23.3 115.1 985 45 3 Image Chart
1981 9 22 06 24.2 114.5 998 0 2 Image Chart
1981 9 22 12 24.8 114.2 1004 0 2 Image Chart
1981 9 22 18 25.5 114.0 1004 0 2 Image Chart
1981 9 23 00 26.0 114.0 1006 0 2 Image Chart
1981 9 23 06 28.0 115.0 1006 0 6 Image Chart
1981 9 23 12 30.5 118.0 1008 0 6 Image Chart
1981 9 23 18 32.0 120.0 1006 0 6 Image Chart
1981 9 24 00 33.5 122.0 1006 0 6 Image Chart
1981 9 24 06 34.5 124.5 1004 0 6 Image Chart
1981 9 24 12 35.5 127.5 1004 0 6 Image Chart
1981 9 24 18 35.5 129.0 1004 0 6 Image Chart
1981 9 25 00 36.0 132.0 1004 0 6 Image Chart
1981 9 25 06 36.0 133.0 1004 0 6 Image Chart
1981 9 25 12 36.0 133.5 1004 0 6 Image Chart
1981 9 25 18 36.0 134.0 1000 0 6 Image Chart
1981 9 26 00 36.0 134.5 1000 0 6 Image Chart
1981 9 26 06 36.0 137.0 1000 0 6 Image Chart
1981 9 26 12 36.0 138.0 1000 0 6 Image Chart
1981 9 26 18 37.0 141.0 998 0 6 Image Chart
1981 9 27 00 38.0 142.0 996 0 6 Image Chart
1981 9 27 06 40.0 145.0 992 0 6 Image Chart
1981 9 27 12 41.5 146.0 990 0 6 Image Chart
1981 9 27 18 43.0 147.0 990 0 6 Image Chart
1981 9 28 00 45.0 148.0 988 0 6 Image Chart
1981 9 28 06 46.5 148.0 988 0 6 Image Chart
1981 9 28 12 48.0 148.0 984 0 6 Image Chart
1981 9 28 18 50.0 148.0 984 0 6 Image Chart
1981 9 29 00 51.0 147.5 988 0 6 Image Chart
1981 9 29 06 51.5 147.0 988 0 6 Image Chart
1981 9 29 12 52.5 146.5 988 0 6 Image Chart
1981 9 29 18 53.5 146.0 992 0 6 Image Chart
1981 9 30 00 54.0 146.0 996 0 6 Image Chart
1981 9 30 06 54.0 146.0 996 0 6 Image Chart
1981 9 30 12 54.5 146.0 996 0 6 Image Chart
1981 9 30 18 54.5 146.0 996 0 6 Image Chart
1981 10 1 00 54.5 146.0 996 0 6 Image Chart
1981 10 1 06 54.5 147.0 1000 0 6 Image Chart
1981 10 1 12 54.5 148.0 1000 0 6 Image Chart
1981 10 1 18 54.5 148.5 1000 0 6 Image Chart
1981 10 2 00 54.5 149.0 1004 0 6 Image Chart
1981 10 2 06 55.0 149.5 1008 0 6 Image Chart
1981 10 2 12 55.5 150.0 1008 0 6 Image Chart
1981 10 2 18 56.0 150.0 1008 0 6 Image Chart
Japan Meteorological Agency Best Track Data | Correction Date : 1992-10-21
< Typhoon 198119 1981 Season Typhoon 198121 >

Help